sensor_id;sensor_type;location;lat;lon;timestamp;temperature;humidity
23507;DHT22;11930;53.076;18.250;2024-01-30T00:00:07;0.10;99.90
23507;DHT22;11930;53.076;18.250;2024-01-30T00:02:34;0.10;99.90
23507;DHT22;11930;53.076;18.250;2024-01-30T00:05:00;0.00;99.90
23507;DHT22;11930;53.076;18.250;2024-01-30T00:07:27;0.00;99.90
23507;DHT22;11930;53.076;18.250;2024-01-30T00:09:54;0.00;99.90
23507;DHT22;11930;53.076;18.250;2024-01-30T00:12:21;0.00;99.90
23507;DHT22;11930;53.076;18.250;2024-01-30T00:14:47;0.00;99.90
23507;DHT22;11930;53.076;18.250;2024-01-30T00:17:14;-0.10;99.90
23507;DHT22;11930;53.076;18.250;2024-01-30T00:19:40;-0.10;99.90
23507;DHT22;11930;53.076;18.250;2024-01-30T00:22:07;-0.10;99.90
23507;DHT22;11930;53.076;18.250;2024-01-30T00:24:33;-0.20;99.90
23507;DHT22;11930;53.076;18.250;2024-01-30T00:26:59;-0.20;99.90
23507;DHT22;11930;53.076;18.250;2024-01-30T00:29:25;-0.20;99.90
23507;DHT22;11930;53.076;18.250;2024-01-30T00:31:56;-0.30;99.90
23507;DHT22;11930;53.076;18.250;2024-01-30T00:34:22;-0.30;99.90
23507;DHT22;11930;53.076;18.250;2024-01-30T00:36:48;-0.30;99.90
23507;DHT22;11930;53.076;18.250;2024-01-30T00:39:14;-0.40;99.90
23507;DHT22;11930;53.076;18.250;2024-01-30T00:41:42;-0.40;99.90
23507;DHT22;11930;53.076;18.250;2024-01-30T00:44:08;-0.40;99.90
23507;DHT22;11930;53.076;18.250;2024-01-30T00:46:34;-0.50;99.90
23507;DHT22;11930;53.076;18.250;2024-01-30T00:49:00;-0.50;99.90
23507;DHT22;11930;53.076;18.250;2024-01-30T00:51:26;-0.60;99.90
23507;DHT22;11930;53.076;18.250;2024-01-30T00:53:54;-0.60;99.90
23507;DHT22;11930;53.076;18.250;2024-01-30T00:56:20;-0.60;99.90
23507;DHT22;11930;53.076;18.250;2024-01-30T00:58:47;-0.70;99.90
23507;DHT22;11930;53.076;18.250;2024-01-30T01:01:13;-0.70;99.90
23507;DHT22;11930;53.076;18.250;2024-01-30T01:03:40;-0.70;99.90
23507;DHT22;11930;53.076;18.250;2024-01-30T01:06:07;-0.70;99.90
23507;DHT22;11930;53.076;18.250;2024-01-30T01:08:33;-0.70;99.90
23507;DHT22;11930;53.076;18.250;2024-01-30T01:11:00;-0.70;99.90
23507;DHT22;11930;53.076;18.250;2024-01-30T01:13:26;-0.80;99.90
23507;DHT22;11930;53.076;18.250;2024-01-30T01:15:52;-0.80;99.90
23507;DHT22;11930;53.076;18.250;2024-01-30T01:18:18;-0.80;99.90
23507;DHT22;11930;53.076;18.250;2024-01-30T01:20:44;-0.80;99.90
23507;DHT22;11930;53.076;18.250;2024-01-30T01:23:10;-0.90;99.90
23507;DHT22;11930;53.076;18.250;2024-01-30T01:25:37;-1.00;99.90
23507;DHT22;11930;53.076;18.250;2024-01-30T01:28:03;-1.00;99.90
23507;DHT22;11930;53.076;18.250;2024-01-30T01:30:29;-1.20;99.90
23507;DHT22;11930;53.076;18.250;2024-01-30T01:32:56;-1.20;99.90
23507;DHT22;11930;53.076;18.250;2024-01-30T01:35:24;-1.30;99.90
23507;DHT22;11930;53.076;18.250;2024-01-30T01:37:54;-1.30;99.90
23507;DHT22;11930;53.076;18.250;2024-01-30T01:40:26;-1.40;99.90
23507;DHT22;11930;53.076;18.250;2024-01-30T01:42:53;-1.50;99.90
23507;DHT22;11930;53.076;18.250;2024-01-30T01:45:21;-1.50;99.90
23507;DHT22;11930;53.076;18.250;2024-01-30T01:47:50;-1.50;99.90
23507;DHT22;11930;53.076;18.250;2024-01-30T01:50:18;-1.50;99.90
23507;DHT22;11930;53.076;18.250;2024-01-30T01:52:49;-1.50;99.90
23507;DHT22;11930;53.076;18.250;2024-01-30T01:55:16;-1.50;99.90
23507;DHT22;11930;53.076;18.250;2024-01-30T01:57:44;-1.50;99.90
23507;DHT22;11930;53.076;18.250;2024-01-30T02:00:12;-1.60;99.90
23507;DHT22;11930;53.076;18.250;2024-01-30T02:02:39;-1.60;99.90
23507;DHT22;11930;53.076;18.250;2024-01-30T02:05:06;-1.60;99.90
23507;DHT22;11930;53.076;18.250;2024-01-30T02:07:32;-1.50;99.90
23507;DHT22;11930;53.076;18.250;2024-01-30T02:09:59;-1.60;99.90
23507;DHT22;11930;53.076;18.250;2024-01-30T02:12:25;-1.70;99.90
23507;DHT22;11930;53.076;18.250;2024-01-30T02:14:51;-1.70;99.90
23507;DHT22;11930;53.076;18.250;2024-01-30T02:17:17;-1.70;99.90
23507;DHT22;11930;53.076;18.250;2024-01-30T02:19:44;-1.80;99.90
23507;DHT22;11930;53.076;18.250;2024-01-30T02:22:10;-1.80;99.90
23507;DHT22;11930;53.076;18.250;2024-01-30T02:24:37;-1.90;99.90
23507;DHT22;11930;53.076;18.250;2024-01-30T02:27:03;-1.90;99.90
23507;DHT22;11930;53.076;18.250;2024-01-30T02:29:29;-1.90;99.90
23507;DHT22;11930;53.076;18.250;2024-01-30T02:31:55;-2.00;99.90
23507;DHT22;11930;53.076;18.250;2024-01-30T02:34:23;-2.00;99.90
23507;DHT22;11930;53.076;18.250;2024-01-30T02:36:49;-2.10;99.90
23507;DHT22;11930;53.076;18.250;2024-01-30T02:39:15;-2.10;99.90
23507;DHT22;11930;53.076;18.250;2024-01-30T02:41:41;-2.10;99.90
23507;DHT22;11930;53.076;18.250;2024-01-30T02:44:08;-2.10;99.90
23507;DHT22;11930;53.076;18.250;2024-01-30T02:46:34;-2.10;99.90
23507;DHT22;11930;53.076;18.250;2024-01-30T02:49:00;-2.10;99.90
23507;DHT22;11930;53.076;18.250;2024-01-30T02:51:26;-2.20;99.90
23507;DHT22;11930;53.076;18.250;2024-01-30T02:53:52;-2.20;99.90
23507;DHT22;11930;53.076;18.250;2024-01-30T02:56:18;-2.20;99.90
23507;DHT22;11930;53.076;18.250;2024-01-30T02:58:45;-2.10;99.90
23507;DHT22;11930;53.076;18.250;2024-01-30T03:01:11;-2.10;99.90
23507;DHT22;11930;53.076;18.250;2024-01-30T03:03:37;-2.10;99.90
23507;DHT22;11930;53.076;18.250;2024-01-30T03:06:03;-2.10;99.90
23507;DHT22;11930;53.076;18.250;2024-01-30T03:08:30;-2.10;99.90
23507;DHT22;11930;53.076;18.250;2024-01-30T03:10:56;-2.20;99.90
23507;DHT22;11930;53.076;18.250;2024-01-30T03:13:22;-2.20;99.90
23507;DHT22;11930;53.076;18.250;2024-01-30T03:15:50;-2.20;99.90
23507;DHT22;11930;53.076;18.250;2024-01-30T03:18:17;-2.20;99.90
23507;DHT22;11930;53.076;18.250;2024-01-30T03:20:43;-2.20;99.90
23507;DHT22;11930;53.076;18.250;2024-01-30T03:23:10;-2.20;99.90
23507;DHT22;11930;53.076;18.250;2024-01-30T03:25:36;-2.20;99.90
23507;DHT22;11930;53.076;18.250;2024-01-30T03:28:02;-2.10;99.90
23507;DHT22;11930;53.076;18.250;2024-01-30T03:30:28;-2.10;99.90
23507;DHT22;11930;53.076;18.250;2024-01-30T03:32:54;-2.10;99.90
23507;DHT22;11930;53.076;18.250;2024-01-30T03:35:20;-2.10;99.90
23507;DHT22;11930;53.076;18.250;2024-01-30T03:37:47;-2.10;99.90
23507;DHT22;11930;53.076;18.250;2024-01-30T03:40:13;-2.10;99.90
23507;DHT22;11930;53.076;18.250;2024-01-30T03:42:39;-2.10;99.90
23507;DHT22;11930;53.076;18.250;2024-01-30T03:45:06;-2.00;99.90
23507;DHT22;11930;53.076;18.250;2024-01-30T03:47:32;-2.00;99.90
23507;DHT22;11930;53.076;18.250;2024-01-30T03:49:58;-1.90;99.90
23507;DHT22;11930;53.076;18.250;2024-01-30T03:52:25;-1.90;99.90
23507;DHT22;11930;53.076;18.250;2024-01-30T03:54:51;-1.90;99.90
23507;DHT22;11930;53.076;18.250;2024-01-30T03:57:17;-2.00;99.90
23507;DHT22;11930;53.076;18.250;2024-01-30T03:59:43;-1.90;99.90
23507;DHT22;11930;53.076;18.250;2024-01-30T04:02:10;-1.90;99.90
23507;DHT22;11930;53.076;18.250;2024-01-30T04:04:38;-1.90;99.90
23507;DHT22;11930;53.076;18.250;2024-01-30T04:07:04;-1.80;99.90
23507;DHT22;11930;53.076;18.250;2024-01-30T04:09:30;-1.80;99.90
23507;DHT22;11930;53.076;18.250;2024-01-30T04:11:56;-1.70;99.90
23507;DHT22;11930;53.076;18.250;2024-01-30T04:14:22;-1.70;99.90
23507;DHT22;11930;53.076;18.250;2024-01-30T04:16:48;-1.60;99.90
23507;DHT22;11930;53.076;18.250;2024-01-30T04:19:15;-1.60;99.90
23507;DHT22;11930;53.076;18.250;2024-01-30T04:21:41;-1.50;99.90
23507;DHT22;11930;53.076;18.250;2024-01-30T04:24:07;-1.50;99.90
23507;DHT22;11930;53.076;18.250;2024-01-30T04:26:33;-1.40;99.90
23507;DHT22;11930;53.076;18.250;2024-01-30T04:28:59;-1.40;99.90
23507;DHT22;11930;53.076;18.250;2024-01-30T04:31:25;-1.30;99.90
23507;DHT22;11930;53.076;18.250;2024-01-30T04:33:52;-1.30;99.90
23507;DHT22;11930;53.076;18.250;2024-01-30T04:36:18;-1.20;99.90
23507;DHT22;11930;53.076;18.250;2024-01-30T04:38:44;-1.10;99.90
23507;DHT22;11930;53.076;18.250;2024-01-30T04:41:10;-1.10;99.90
23507;DHT22;11930;53.076;18.250;2024-01-30T04:43:36;-1.00;99.90
23507;DHT22;11930;53.076;18.250;2024-01-30T04:46:03;-1.00;99.90
23507;DHT22;11930;53.076;18.250;2024-01-30T04:48:30;-1.00;99.90
23507;DHT22;11930;53.076;18.250;2024-01-30T04:50:56;-1.00;99.90
23507;DHT22;11930;53.076;18.250;2024-01-30T04:53:22;-0.90;99.90
23507;DHT22;11930;53.076;18.250;2024-01-30T04:55:48;-0.90;99.90
23507;DHT22;11930;53.076;18.250;2024-01-30T04:58:15;-0.90;99.90
23507;DHT22;11930;53.076;18.250;2024-01-30T05:00:41;-0.90;99.90
23507;DHT22;11930;53.076;18.250;2024-01-30T05:03:07;-0.80;99.90
23507;DHT22;11930;53.076;18.250;2024-01-30T05:05:34;-0.80;99.90
23507;DHT22;11930;53.076;18.250;2024-01-30T05:08:00;-0.80;99.90
23507;DHT22;11930;53.076;18.250;2024-01-30T05:10:26;-0.70;99.90
23507;DHT22;11930;53.076;18.250;2024-01-30T05:12:54;-0.70;99.90
23507;DHT22;11930;53.076;18.250;2024-01-30T05:15:20;-0.70;99.90
23507;DHT22;11930;53.076;18.250;2024-01-30T05:17:47;-0.60;99.90
23507;DHT22;11930;53.076;18.250;2024-01-30T05:20:13;-0.60;99.90
23507;DHT22;11930;53.076;18.250;2024-01-30T05:22:39;-0.50;99.90
23507;DHT22;11930;53.076;18.250;2024-01-30T05:25:12;-0.40;99.90
23507;DHT22;11930;53.076;18.250;2024-01-30T05:27:38;-0.30;99.90
23507;DHT22;11930;53.076;18.250;2024-01-30T05:30:06;-0.20;99.90
23507;DHT22;11930;53.076;18.250;2024-01-30T05:32:33;-0.20;99.90
23507;DHT22;11930;53.076;18.250;2024-01-30T05:34:59;-0.20;99.90
23507;DHT22;11930;53.076;18.250;2024-01-30T05:37:25;-0.20;99.90
23507;DHT22;11930;53.076;18.250;2024-01-30T05:39:51;-0.10;99.90
23507;DHT22;11930;53.076;18.250;2024-01-30T05:42:18;-0.10;99.90
23507;DHT22;11930;53.076;18.250;2024-01-30T05:44:44;0.00;99.90
23507;DHT22;11930;53.076;18.250;2024-01-30T05:47:10;0.00;99.90
23507;DHT22;11930;53.076;18.250;2024-01-30T05:49:36;0.10;99.90
23507;DHT22;11930;53.076;18.250;2024-01-30T05:52:03;0.00;99.90
23507;DHT22;11930;53.076;18.250;2024-01-30T05:54:29;0.00;99.90
23507;DHT22;11930;53.076;18.250;2024-01-30T05:56:56;0.10;99.90
23507;DHT22;11930;53.076;18.250;2024-01-30T05:59:22;0.00;99.90
23507;DHT22;11930;53.076;18.250;2024-01-30T06:01:48;0.00;99.90
23507;DHT22;11930;53.076;18.250;2024-01-30T06:04:15;0.00;99.90
23507;DHT22;11930;53.076;18.250;2024-01-30T06:06:41;0.00;99.90
23507;DHT22;11930;53.076;18.250;2024-01-30T06:09:07;0.00;99.90
23507;DHT22;11930;53.076;18.250;2024-01-30T06:11:36;0.00;99.90
23507;DHT22;11930;53.076;18.250;2024-01-30T06:14:02;0.10;99.90
23507;DHT22;11930;53.076;18.250;2024-01-30T06:16:28;0.10;99.90
23507;DHT22;11930;53.076;18.250;2024-01-30T06:18:56;0.10;99.90
23507;DHT22;11930;53.076;18.250;2024-01-30T06:21:23;0.10;99.90
23507;DHT22;11930;53.076;18.250;2024-01-30T06:23:49;0.20;99.90
23507;DHT22;11930;53.076;18.250;2024-01-30T06:26:15;0.30;99.90
23507;DHT22;11930;53.076;18.250;2024-01-30T06:28:41;0.30;99.90
23507;DHT22;11930;53.076;18.250;2024-01-30T06:31:08;0.40;99.90
23507;DHT22;11930;53.076;18.250;2024-01-30T06:33:34;0.40;99.90
23507;DHT22;11930;53.076;18.250;2024-01-30T06:36:00;0.40;99.90
23507;DHT22;11930;53.076;18.250;2024-01-30T06:38:26;0.50;99.90
23507;DHT22;11930;53.076;18.250;2024-01-30T06:40:53;0.50;99.90
23507;DHT22;11930;53.076;18.250;2024-01-30T06:43:19;0.50;99.90
23507;DHT22;11930;53.076;18.250;2024-01-30T06:45:45;0.60;99.90
23507;DHT22;11930;53.076;18.250;2024-01-30T06:48:12;0.60;99.90
23507;DHT22;11930;53.076;18.250;2024-01-30T06:50:38;0.60;99.90
23507;DHT22;11930;53.076;18.250;2024-01-30T06:53:04;0.60;99.90
23507;DHT22;11930;53.076;18.250;2024-01-30T06:55:30;0.60;99.90
23507;DHT22;11930;53.076;18.250;2024-01-30T06:57:56;0.70;99.90
23507;DHT22;11930;53.076;18.250;2024-01-30T07:00:23;0.70;99.90
23507;DHT22;11930;53.076;18.250;2024-01-30T07:02:49;0.70;99.90
23507;DHT22;11930;53.076;18.250;2024-01-30T07:05:15;0.70;99.90
23507;DHT22;11930;53.076;18.250;2024-01-30T07:07:43;0.80;99.90
23507;DHT22;11930;53.076;18.250;2024-01-30T07:10:09;0.80;99.90
23507;DHT22;11930;53.076;18.250;2024-01-30T07:12:35;0.80;99.90
23507;DHT22;11930;53.076;18.250;2024-01-30T07:15:02;0.80;99.90
23507;DHT22;11930;53.076;18.250;2024-01-30T07:17:29;0.90;99.90
23507;DHT22;11930;53.076;18.250;2024-01-30T07:19:55;0.90;99.90
23507;DHT22;11930;53.076;18.250;2024-01-30T07:22:21;1.00;99.90
23507;DHT22;11930;53.076;18.250;2024-01-30T07:24:47;1.00;99.90
23507;DHT22;11930;53.076;18.250;2024-01-30T07:27:15;1.00;99.90
23507;DHT22;11930;53.076;18.250;2024-01-30T07:29:43;1.10;99.90
23507;DHT22;11930;53.076;18.250;2024-01-30T07:32:09;1.10;99.90
23507;DHT22;11930;53.076;18.250;2024-01-30T07:34:36;1.20;99.90
23507;DHT22;11930;53.076;18.250;2024-01-30T07:37:02;1.20;99.90
23507;DHT22;11930;53.076;18.250;2024-01-30T07:39:28;1.30;99.90
23507;DHT22;11930;53.076;18.250;2024-01-30T07:41:54;1.40;99.90
23507;DHT22;11930;53.076;18.250;2024-01-30T07:44:21;1.40;99.90
23507;DHT22;11930;53.076;18.250;2024-01-30T07:46:47;1.60;99.90
23507;DHT22;11930;53.076;18.250;2024-01-30T07:49:14;1.70;99.90
23507;DHT22;11930;53.076;18.250;2024-01-30T07:51:40;1.70;99.90
23507;DHT22;11930;53.076;18.250;2024-01-30T07:54:06;1.80;99.90
23507;DHT22;11930;53.076;18.250;2024-01-30T07:56:32;1.90;99.90
23507;DHT22;11930;53.076;18.250;2024-01-30T07:58:58;2.00;99.90
23507;DHT22;11930;53.076;18.250;2024-01-30T08:01:24;2.10;99.90
23507;DHT22;11930;53.076;18.250;2024-01-30T08:03:51;2.00;99.90
23507;DHT22;11930;53.076;18.250;2024-01-30T08:06:17;2.10;99.90
23507;DHT22;11930;53.076;18.250;2024-01-30T08:08:43;2.20;99.90
23507;DHT22;11930;53.076;18.250;2024-01-30T08:11:09;2.20;99.90
23507;DHT22;11930;53.076;18.250;2024-01-30T08:13:35;2.30;99.90
23507;DHT22;11930;53.076;18.250;2024-01-30T08:16:02;2.30;99.90
23507;DHT22;11930;53.076;18.250;2024-01-30T08:18:28;2.40;99.90
23507;DHT22;11930;53.076;18.250;2024-01-30T08:20:54;2.50;99.90
23507;DHT22;11930;53.076;18.250;2024-01-30T08:23:20;2.60;99.90
23507;DHT22;11930;53.076;18.250;2024-01-30T08:25:46;2.70;99.90
23507;DHT22;11930;53.076;18.250;2024-01-30T08:28:13;2.80;99.90
23507;DHT22;11930;53.076;18.250;2024-01-30T08:30:39;2.90;99.90
23507;DHT22;11930;53.076;18.250;2024-01-30T08:33:06;3.00;99.90
23507;DHT22;11930;53.076;18.250;2024-01-30T08:35:32;3.10;99.90
23507;DHT22;11930;53.076;18.250;2024-01-30T08:37:59;3.10;99.90
23507;DHT22;11930;53.076;18.250;2024-01-30T08:40:26;3.20;99.90
23507;DHT22;11930;53.076;18.250;2024-01-30T08:42:52;3.30;99.90
23507;DHT22;11930;53.076;18.250;2024-01-30T08:45:18;3.50;99.90
23507;DHT22;11930;53.076;18.250;2024-01-30T08:47:45;3.60;99.90
23507;DHT22;11930;53.076;18.250;2024-01-30T08:50:11;3.80;99.90
23507;DHT22;11930;53.076;18.250;2024-01-30T08:52:37;3.90;99.90
23507;DHT22;11930;53.076;18.250;2024-01-30T08:55:03;4.10;99.90
23507;DHT22;11930;53.076;18.250;2024-01-30T08:57:30;4.30;99.90
23507;DHT22;11930;53.076;18.250;2024-01-30T08:59:56;4.50;99.90
23507;DHT22;11930;53.076;18.250;2024-01-30T09:02:23;4.70;99.90
23507;DHT22;11930;53.076;18.250;2024-01-30T09:04:49;5.20;99.90
23507;DHT22;11930;53.076;18.250;2024-01-30T09:07:15;5.30;99.90
23507;DHT22;11930;53.076;18.250;2024-01-30T09:09:41;5.50;99.90
23507;DHT22;11930;53.076;18.250;2024-01-30T09:12:08;5.70;99.90
23507;DHT22;11930;53.076;18.250;2024-01-30T09:14:38;5.80;99.90
23507;DHT22;11930;53.076;18.250;2024-01-30T09:17:05;5.90;99.90
23507;DHT22;11930;53.076;18.250;2024-01-30T09:19:31;6.00;99.90
23507;DHT22;11930;53.076;18.250;2024-01-30T09:21:57;6.10;99.90
23507;DHT22;11930;53.076;18.250;2024-01-30T09:24:24;6.20;99.90
23507;DHT22;11930;53.076;18.250;2024-01-30T09:26:50;6.50;99.90
23507;DHT22;11930;53.076;18.250;2024-01-30T09:29:16;6.80;99.90
23507;DHT22;11930;53.076;18.250;2024-01-30T09:31:45;7.10;99.90
23507;DHT22;11930;53.076;18.250;2024-01-30T09:34:12;7.30;99.90
23507;DHT22;11930;53.076;18.250;2024-01-30T09:36:39;7.40;99.90
23507;DHT22;11930;53.076;18.250;2024-01-30T09:39:05;7.50;99.90
23507;DHT22;11930;53.076;18.250;2024-01-30T09:41:33;7.50;99.90
23507;DHT22;11930;53.076;18.250;2024-01-30T09:44:02;7.30;99.90
23507;DHT22;11930;53.076;18.250;2024-01-30T09:46:31;7.20;99.90
23507;DHT22;11930;53.076;18.250;2024-01-30T09:48:58;7.10;99.90
23507;DHT22;11930;53.076;18.250;2024-01-30T09:51:25;7.00;99.90
23507;DHT22;11930;53.076;18.250;2024-01-30T09:53:53;7.00;99.90
23507;DHT22;11930;53.076;18.250;2024-01-30T09:56:21;7.00;99.90
23507;DHT22;11930;53.076;18.250;2024-01-30T09:58:47;7.10;99.90
23507;DHT22;11930;53.076;18.250;2024-01-30T10:01:15;7.20;99.90
23507;DHT22;11930;53.076;18.250;2024-01-30T10:03:44;7.40;99.90
23507;DHT22;11930;53.076;18.250;2024-01-30T10:06:12;7.70;99.90
23507;DHT22;11930;53.076;18.250;2024-01-30T10:08:38;8.10;99.90
23507;DHT22;11930;53.076;18.250;2024-01-30T10:11:04;8.30;99.90
23507;DHT22;11930;53.076;18.250;2024-01-30T10:13:30;8.50;99.90
23507;DHT22;11930;53.076;18.250;2024-01-30T10:15:56;8.70;99.90
23507;DHT22;11930;53.076;18.250;2024-01-30T10:18:23;8.80;99.90
23507;DHT22;11930;53.076;18.250;2024-01-30T10:20:51;8.90;99.80
23507;DHT22;11930;53.076;18.250;2024-01-30T10:23:17;8.90;99.50
23507;DHT22;11930;53.076;18.250;2024-01-30T10:25:45;8.90;99.80
23507;DHT22;11930;53.076;18.250;2024-01-30T10:28:11;9.00;98.40
23507;DHT22;11930;53.076;18.250;2024-01-30T10:30:38;8.90;99.20
23507;DHT22;11930;53.076;18.250;2024-01-30T10:33:04;9.00;98.00
23507;DHT22;11930;53.076;18.250;2024-01-30T10:35:30;8.90;97.90
23507;DHT22;11930;53.076;18.250;2024-01-30T10:37:57;8.90;98.10
23507;DHT22;11930;53.076;18.250;2024-01-30T10:40:28;8.80;97.60
23507;DHT22;11930;53.076;18.250;2024-01-30T10:42:55;8.80;98.90
23507;DHT22;11930;53.076;18.250;2024-01-30T10:45:26;8.70;99.40
23507;DHT22;11930;53.076;18.250;2024-01-30T10:47:55;8.70;98.80
23507;DHT22;11930;53.076;18.250;2024-01-30T10:50:27;8.50;98.60
23507;DHT22;11930;53.076;18.250;2024-01-30T10:52:55;8.50;99.00
23507;DHT22;11930;53.076;18.250;2024-01-30T10:55:22;8.40;98.80
23507;DHT22;11930;53.076;18.250;2024-01-30T10:57:51;8.30;98.70
23507;DHT22;11930;53.076;18.250;2024-01-30T11:00:18;8.20;99.90
23507;DHT22;11930;53.076;18.250;2024-01-30T11:02:48;8.20;99.80
23507;DHT22;11930;53.076;18.250;2024-01-30T11:05:23;8.10;99.80
23507;DHT22;11930;53.076;18.250;2024-01-30T11:07:51;7.90;99.90
23507;DHT22;11930;53.076;18.250;2024-01-30T11:10:17;7.80;99.90
23507;DHT22;11930;53.076;18.250;2024-01-30T11:12:43;7.60;99.90
23507;DHT22;11930;53.076;18.250;2024-01-30T11:15:14;7.60;99.90
23507;DHT22;11930;53.076;18.250;2024-01-30T11:20:30;7.50;99.90
23507;DHT22;11930;53.076;18.250;2024-01-30T11:23:02;7.40;99.90
23507;DHT22;11930;53.076;18.250;2024-01-30T11:25:32;7.40;99.90
23507;DHT22;11930;53.076;18.250;2024-01-30T11:27:58;7.30;99.90
23507;DHT22;11930;53.076;18.250;2024-01-30T11:30:28;7.30;99.90
23507;DHT22;11930;53.076;18.250;2024-01-30T11:33:12;7.30;99.90
23507;DHT22;11930;53.076;18.250;2024-01-30T11:35:40;7.20;99.90
23507;DHT22;11930;53.076;18.250;2024-01-30T11:38:08;7.30;99.90
23507;DHT22;11930;53.076;18.250;2024-01-30T11:40:37;7.30;99.90
23507;DHT22;11930;53.076;18.250;2024-01-30T11:43:05;7.30;99.90
23507;DHT22;11930;53.076;18.250;2024-01-30T11:45:32;7.30;99.90
23507;DHT22;11930;53.076;18.250;2024-01-30T11:47:59;7.30;99.90
23507;DHT22;11930;53.076;18.250;2024-01-30T11:50:27;7.30;99.90
23507;DHT22;11930;53.076;18.250;2024-01-30T11:52:54;7.30;99.90
23507;DHT22;11930;53.076;18.250;2024-01-30T11:55:22;7.30;99.90
23507;DHT22;11930;53.076;18.250;2024-01-30T11:57:48;7.30;99.90
23507;DHT22;11930;53.076;18.250;2024-01-30T12:00:16;7.30;99.90
23507;DHT22;11930;53.076;18.250;2024-01-30T12:02:44;7.30;99.90
23507;DHT22;11930;53.076;18.250;2024-01-30T12:05:15;7.30;99.90
23507;DHT22;11930;53.076;18.250;2024-01-30T12:07:44;7.30;99.90
23507;DHT22;11930;53.076;18.250;2024-01-30T12:10:10;7.20;99.90
23507;DHT22;11930;53.076;18.250;2024-01-30T12:12:37;7.20;99.90
23507;DHT22;11930;53.076;18.250;2024-01-30T12:15:04;7.20;99.90
23507;DHT22;11930;53.076;18.250;2024-01-30T12:17:33;7.20;99.90
23507;DHT22;11930;53.076;18.250;2024-01-30T12:22:30;7.20;99.90
23507;DHT22;11930;53.076;18.250;2024-01-30T12:24:57;7.10;99.90
23507;DHT22;11930;53.076;18.250;2024-01-30T12:27:23;7.20;99.90
23507;DHT22;11930;53.076;18.250;2024-01-30T12:29:56;7.20;99.90
23507;DHT22;11930;53.076;18.250;2024-01-30T12:32:23;7.20;99.90
23507;DHT22;11930;53.076;18.250;2024-01-30T12:34:49;7.20;99.90
23507;DHT22;11930;53.076;18.250;2024-01-30T12:37:16;7.20;99.90
23507;DHT22;11930;53.076;18.250;2024-01-30T12:39:48;7.20;99.90
23507;DHT22;11930;53.076;18.250;2024-01-30T12:42:15;7.20;99.90
23507;DHT22;11930;53.076;18.250;2024-01-30T12:44:41;7.20;99.90
23507;DHT22;11930;53.076;18.250;2024-01-30T12:47:10;7.20;99.90
23507;DHT22;11930;53.076;18.250;2024-01-30T12:49:37;7.20;99.90
23507;DHT22;11930;53.076;18.250;2024-01-30T12:52:03;7.30;99.90
23507;DHT22;11930;53.076;18.250;2024-01-30T12:54:29;7.30;99.90
23507;DHT22;11930;53.076;18.250;2024-01-30T12:56:56;7.20;99.90
23507;DHT22;11930;53.076;18.250;2024-01-30T12:59:22;7.20;99.90
23507;DHT22;11930;53.076;18.250;2024-01-30T13:01:48;7.30;99.90
23507;DHT22;11930;53.076;18.250;2024-01-30T13:04:15;7.30;99.90
23507;DHT22;11930;53.076;18.250;2024-01-30T13:06:42;7.20;99.90
23507;DHT22;11930;53.076;18.250;2024-01-30T13:09:08;7.30;99.90
23507;DHT22;11930;53.076;18.250;2024-01-30T13:11:35;7.30;99.90
23507;DHT22;11930;53.076;18.250;2024-01-30T13:14:02;7.30;99.90
23507;DHT22;11930;53.076;18.250;2024-01-30T13:16:29;7.30;99.90
23507;DHT22;11930;53.076;18.250;2024-01-30T13:18:55;7.30;99.90
23507;DHT22;11930;53.076;18.250;2024-01-30T13:21:21;7.30;99.90
23507;DHT22;11930;53.076;18.250;2024-01-30T13:23:48;7.30;99.90
23507;DHT22;11930;53.076;18.250;2024-01-30T13:26:14;7.30;99.90
23507;DHT22;11930;53.076;18.250;2024-01-30T13:28:40;7.30;99.90
23507;DHT22;11930;53.076;18.250;2024-01-30T13:31:10;7.30;99.90
23507;DHT22;11930;53.076;18.250;2024-01-30T13:33:36;7.30;99.90
23507;DHT22;11930;53.076;18.250;2024-01-30T13:36:02;7.30;99.90
23507;DHT22;11930;53.076;18.250;2024-01-30T13:38:29;7.30;99.90
23507;DHT22;11930;53.076;18.250;2024-01-30T13:40:55;7.30;99.90
23507;DHT22;11930;53.076;18.250;2024-01-30T13:43:22;7.30;99.90
23507;DHT22;11930;53.076;18.250;2024-01-30T13:45:48;7.30;99.90
23507;DHT22;11930;53.076;18.250;2024-01-30T13:48:14;7.30;99.90
23507;DHT22;11930;53.076;18.250;2024-01-30T13:50:40;7.30;99.90
23507;DHT22;11930;53.076;18.250;2024-01-30T13:53:06;7.20;99.90
23507;DHT22;11930;53.076;18.250;2024-01-30T13:55:33;7.20;99.90
23507;DHT22;11930;53.076;18.250;2024-01-30T13:58:00;7.20;99.90
23507;DHT22;11930;53.076;18.250;2024-01-30T14:00:29;7.10;99.90
23507;DHT22;11930;53.076;18.250;2024-01-30T14:02:56;7.10;99.90
23507;DHT22;11930;53.076;18.250;2024-01-30T14:05:24;7.10;99.90
23507;DHT22;11930;53.076;18.250;2024-01-30T14:07:51;7.00;99.90
23507;DHT22;11930;53.076;18.250;2024-01-30T14:10:18;7.00;99.90
23507;DHT22;11930;53.076;18.250;2024-01-30T14:12:44;7.00;99.90
23507;DHT22;11930;53.076;18.250;2024-01-30T14:15:11;7.00;99.90
23507;DHT22;11930;53.076;18.250;2024-01-30T14:17:39;7.00;99.90
23507;DHT22;11930;53.076;18.250;2024-01-30T14:20:05;7.00;99.90
23507;DHT22;11930;53.076;18.250;2024-01-30T14:22:36;6.90;99.90
23507;DHT22;11930;53.076;18.250;2024-01-30T14:25:03;6.90;99.90
23507;DHT22;11930;53.076;18.250;2024-01-30T14:27:30;6.80;99.90
23507;DHT22;11930;53.076;18.250;2024-01-30T14:29:57;6.80;99.90
23507;DHT22;11930;53.076;18.250;2024-01-30T14:32:24;6.80;99.90
23507;DHT22;11930;53.076;18.250;2024-01-30T14:34:51;6.80;99.90
23507;DHT22;11930;53.076;18.250;2024-01-30T14:37:19;6.70;99.90
23507;DHT22;11930;53.076;18.250;2024-01-30T14:39:46;6.70;99.90
23507;DHT22;11930;53.076;18.250;2024-01-30T14:42:12;6.60;99.90
23507;DHT22;11930;53.076;18.250;2024-01-30T14:44:38;6.60;99.90
23507;DHT22;11930;53.076;18.250;2024-01-30T14:47:05;6.50;99.90
23507;DHT22;11930;53.076;18.250;2024-01-30T14:49:32;6.50;99.90
23507;DHT22;11930;53.076;18.250;2024-01-30T14:51:58;6.40;99.90
23507;DHT22;11930;53.076;18.250;2024-01-30T14:54:24;6.40;99.90
23507;DHT22;11930;53.076;18.250;2024-01-30T14:56:52;6.30;99.90
23507;DHT22;11930;53.076;18.250;2024-01-30T14:59:18;6.30;99.90
23507;DHT22;11930;53.076;18.250;2024-01-30T15:01:44;6.20;99.90
23507;DHT22;11930;53.076;18.250;2024-01-30T15:04:11;6.20;99.90
23507;DHT22;11930;53.076;18.250;2024-01-30T15:06:37;6.10;99.90
23507;DHT22;11930;53.076;18.250;2024-01-30T15:09:04;6.00;99.90
23507;DHT22;11930;53.076;18.250;2024-01-30T15:11:31;6.00;99.90
23507;DHT22;11930;53.076;18.250;2024-01-30T15:13:58;5.90;99.90
23507;DHT22;11930;53.076;18.250;2024-01-30T15:16:24;5.90;99.90
23507;DHT22;11930;53.076;18.250;2024-01-30T15:18:51;5.80;99.90
23507;DHT22;11930;53.076;18.250;2024-01-30T15:21:17;5.80;99.90
23507;DHT22;11930;53.076;18.250;2024-01-30T15:23:48;5.70;99.90
23507;DHT22;11930;53.076;18.250;2024-01-30T15:26:14;5.60;99.90